KCPR/CPR METAR and TAF weather

Enter ICAO airport designator
Station Type Date Time Source
KCPR METAR 2022/05/24 10:53 UTC NOAA

KCPR 241053Z 00000KT 10SM CLR M03/M04 A3003 RMK AO2 SLP174 T10281039


Station Type Date Time Source
KCPR Decoded METAR 2022/05/24 10:53 UTC NOAA

NATRONA COUNTY INTERNATIONAL AIRPORT , WY, United States (KCPR) 42-54N 106-28W 1621M
May 24, 2022 - 06:53 AM EDT / 2022.05.24 1053 UTC
Wind: Calm:0
Visibility: 10 mile(s):0
Sky conditions: clear
Temperature: 27.0 F (-2.8 C)
Dew Point: 25.0 F (-3.9 C)
Relative Humidity: 92%
Pressure (altimeter): 30.03 in. Hg (1016 hPa)
ob: KCPR 241053Z 00000KT 10SM CLR M03/M04 A3003 RMK AO2 SLP174 T10281039
cycle: 11

Station Type Date Time Source
KCPR TAF 2022/05/24 12:22 UTC NOAA

TAF KCPR 241120Z 2412/2512 VRB06KT P6SM SCT100
FM241800 08007KT P6SM VCSH BKN100
FM242000 07008KT P6SM VCTS OVC080CB
FM242200 07011KT P6SM -SHRA VCTS OVC060CB
FM250200 26007KT P6SM BKN100

Example: see airport list